createdAt,value
2019-03-29T00:01:18.438Z,38.85
2019-03-29T00:06:27.537Z,40.90
2019-03-29T00:11:36.741Z,40.46
2019-03-29T00:16:45.857Z,41.53
2019-03-29T00:21:55.018Z,40.20
2019-03-29T00:27:04.116Z,41.78
2019-03-29T00:32:13.302Z,41.55
2019-03-29T00:38:15.131Z,26.95
2019-03-29T00:43:24.455Z,40.61
2019-03-29T00:48:35.629Z,27.70
2019-03-29T00:53:42.375Z,30.94
2019-03-29T00:58:51.471Z,40.22
2019-03-29T01:04:00.822Z,33.39
2019-03-29T01:09:09.937Z,39.04
2019-03-29T01:14:19.113Z,35.76
2019-03-29T01:19:28.266Z,38.81
2019-03-29T01:24:37.440Z,39.01
2019-03-29T01:29:46.678Z,29.61
2019-03-29T01:34:55.894Z,30.40
2019-03-29T01:40:05.006Z,37.86
2019-03-29T01:45:14.474Z,39.44
2019-03-29T01:50:23.605Z,38.80
2019-03-29T01:55:32.765Z,39.88
2019-03-29T02:00:41.916Z,40.33
2019-03-29T02:05:51.226Z,40.11
2019-03-29T02:11:00.353Z,29.21
2019-03-29T02:16:09.603Z,37.91
2019-03-29T02:21:18.742Z,30.65
2019-03-29T02:26:27.933Z,33.21
2019-03-29T02:31:37.051Z,36.78
2019-03-29T02:36:46.322Z,37.48
2019-03-29T02:41:55.441Z,29.61
2019-03-29T02:47:04.599Z,37.75
2019-03-29T02:52:13.692Z,37.27
2019-03-29T02:57:22.942Z,38.32
2019-03-29T03:02:32.043Z,28.41
2019-03-29T03:07:41.245Z,37.53
2019-03-29T03:12:50.317Z,39.61
2019-03-29T03:17:59.567Z,38.53
2019-03-29T03:23:08.637Z,39.42
2019-03-29T03:28:20.054Z,27.67
2019-03-29T03:33:19.151Z,28.60
2019-03-29T03:38:28.370Z,37.64
2019-03-29T03:43:37.488Z,38.50
2019-03-29T03:48:46.833Z,38.69
2019-03-29T03:53:55.918Z,27.92
2019-03-29T03:59:05.178Z,37.88
2019-03-29T04:04:14.281Z,38.26
2019-03-29T04:09:23.453Z,27.34
2019-03-29T04:14:32.605Z,37.51
2019-03-29T04:19:41.811Z,38.23
2019-03-29T04:24:50.911Z,36.97
2019-03-29T04:30:00.442Z,37.71
2019-03-29T04:35:08.745Z,38.79
2019-03-29T04:40:17.926Z,26.88
2019-03-29T04:45:27.062Z,37.59
2019-03-29T04:50:36.262Z,38.71
2019-03-29T04:55:45.386Z,38.13
2019-03-29T05:00:54.736Z,38.51
2019-03-29T05:06:03.849Z,38.02
2019-03-29T05:11:13.053Z,39.08
2019-03-29T05:16:22.155Z,38.42
2019-03-29T05:21:31.488Z,38.93
2019-03-29T05:26:40.603Z,25.80
2019-03-29T05:31:49.826Z,37.67
2019-03-29T05:36:58.953Z,38.77
2019-03-29T05:42:08.137Z,38.36
2019-03-29T05:47:17.261Z,38.11
2019-03-29T05:52:26.422Z,38.49
2019-03-29T05:57:35.552Z,37.77
2019-03-29T06:02:44.840Z,37.56
2019-03-29T06:07:53.984Z,27.11
2019-03-29T06:13:03.238Z,36.61
2019-03-29T06:18:12.370Z,37.37
2019-03-29T06:23:21.605Z,38.55
2019-03-29T06:28:30.918Z,38.32
2019-03-29T06:33:40.356Z,27.84
2019-03-29T06:38:49.485Z,37.04
2019-03-29T06:43:58.802Z,37.79
2019-03-29T06:49:07.978Z,27.05
2019-03-29T06:54:17.240Z,29.04
2019-03-29T06:59:26.519Z,29.69
2019-03-29T07:04:36.588Z,30.18
2019-03-29T07:09:35.718Z,37.00
2019-03-29T07:14:44.960Z,37.30
2019-03-29T07:19:54.148Z,29.30
2019-03-29T07:25:03.409Z,35.66
2019-03-29T07:30:12.560Z,37.59
2019-03-29T07:35:21.759Z,39.60
2019-03-29T07:40:30.917Z,30.79
2019-03-29T07:45:40.296Z,40.33
2019-03-29T07:50:49.461Z,37.98
2019-03-29T07:55:58.697Z,37.90
2019-03-29T08:01:08.472Z,38.10
2019-03-29T08:06:18.842Z,37.79
2019-03-29T08:11:25.985Z,39.86
2019-03-29T08:16:26.630Z,40.85
2019-03-29T08:21:35.807Z,37.77
2019-03-29T08:26:45.011Z,32.23
2019-03-29T08:31:55.644Z,40.48
2019-03-29T08:37:02.943Z,39.24
2019-03-29T08:42:12.549Z,33.47
2019-03-29T08:47:21.747Z,38.65
2019-03-29T08:52:30.906Z,35.56
2019-03-29T08:57:40.358Z,36.00
2019-03-29T09:02:49.497Z,43.62
2019-03-29T09:07:58.786Z,35.85
2019-03-29T09:13:07.921Z,42.33
2019-03-29T09:18:17.171Z,44.71
2019-03-29T09:23:26.312Z,41.37
2019-03-29T09:28:35.516Z,43.42
2019-03-29T09:33:44.704Z,38.18
2019-03-29T09:38:54.088Z,48.78
2019-03-29T09:44:03.271Z,35.67
2019-03-29T09:49:12.437Z,43.04
2019-03-29T09:54:21.578Z,41.20
2019-03-29T09:59:30.819Z,36.59
2019-03-29T10:04:40.008Z,51.72
2019-03-29T10:09:50.339Z,43.12
2019-03-29T10:14:52.298Z,41.67
2019-03-29T10:19:51.739Z,38.27
2019-03-29T10:25:02.545Z,41.39
2019-03-29T10:30:09.844Z,39.00
2019-03-29T10:35:19.061Z,38.79
2019-03-29T10:40:28.301Z,47.03
2019-03-29T10:45:40.327Z,40.45
2019-03-29T10:50:46.192Z,41.01
2019-03-29T10:55:55.371Z,40.45
2019-03-29T11:01:04.600Z,40.81
2019-03-29T11:06:13.756Z,46.64
2019-03-29T11:11:23.194Z,45.25
2019-03-29T11:16:32.441Z,42.42
2019-03-29T11:21:41.638Z,39.12
2019-03-29T11:26:50.819Z,38.43
2019-03-29T11:32:00.091Z,46.65
2019-03-29T11:37:09.198Z,39.70
2019-03-29T11:42:18.787Z,42.47
2019-03-29T11:47:27.948Z,39.92
2019-03-29T11:52:37.291Z,38.97
2019-03-29T11:57:46.420Z,43.63
2019-03-29T12:02:55.741Z,42.53
2019-03-29T12:08:05.026Z,41.22
2019-03-29T12:13:14.284Z,41.62
2019-03-29T12:18:23.471Z,42.68
2019-03-29T12:23:32.694Z,43.49
2019-03-29T12:28:41.833Z,39.37
2019-03-29T12:33:51.274Z,38.42
2019-03-29T12:39:00.436Z,37.31
2019-03-29T12:44:09.741Z,38.67
2019-03-29T12:49:18.929Z,47.34
2019-03-29T12:54:26.981Z,38.41
2019-03-29T12:59:36.109Z,38.11
2019-03-29T13:04:47.033Z,39.08
2019-03-29T13:09:54.174Z,35.98
2019-03-29T13:15:04.435Z,47.44
2019-03-29T13:20:03.538Z,39.81
2019-03-29T13:25:12.695Z,38.68
2019-03-29T13:30:21.826Z,44.41
2019-03-29T13:35:30.333Z,44.74
2019-03-29T13:40:40.603Z,39.46
2019-03-29T13:45:40.443Z,43.54
2019-03-29T13:50:49.685Z,41.51
2019-03-29T13:55:59.078Z,39.73
2019-03-29T14:01:08.243Z,38.43
2019-03-29T14:06:17.486Z,46.94
2019-03-29T14:11:26.714Z,47.92
2019-03-29T14:16:36.090Z,41.79
2019-03-29T14:21:45.232Z,41.35
2019-03-29T14:26:54.661Z,41.81
2019-03-29T14:32:05.855Z,71.60
2019-03-29T14:37:05.052Z,45.18
2019-03-29T14:42:14.453Z,57.58
2019-03-29T14:47:38.507Z,45.90
2019-03-29T14:52:33.129Z,57.81
2019-03-29T14:57:45.542Z,65.24
2019-03-29T15:02:44.659Z,67.30
2019-03-29T15:07:53.894Z,92.91
2019-03-29T15:13:03.105Z,999.75
2019-03-29T15:18:13.341Z,999.74
2019-03-29T15:23:12.427Z,999.78
2019-03-29T15:28:20.218Z,999.79
2019-03-29T15:33:29.368Z,630.14
2019-03-29T15:38:38.670Z,43.67
2019-03-29T15:43:47.790Z,42.21
2019-03-29T15:48:57.177Z,40.46
2019-03-29T15:54:06.740Z,41.91
2019-03-29T15:59:16.067Z,43.04
2019-03-29T16:04:25.240Z,41.47
2019-03-29T16:09:34.646Z,43.38
2019-03-29T16:14:44.022Z,40.71
2019-03-29T16:19:53.291Z,41.11
2019-03-29T16:25:02.491Z,41.37
2019-03-29T16:30:11.770Z,41.35
2019-03-29T16:35:21.041Z,40.61
2019-03-29T16:40:31.136Z,40.00
2019-03-29T16:45:47.782Z,38.73
2019-03-29T16:50:47.604Z,39.33
2019-03-29T16:55:56.831Z,39.28
2019-03-29T17:01:07.270Z,41.85
2019-03-29T17:06:06.370Z,41.34
2019-03-29T17:11:15.561Z,38.99
2019-03-29T17:16:30.661Z,41.34
2019-03-29T17:21:33.455Z,37.72
2019-03-29T17:26:42.632Z,40.48
2019-03-29T17:31:51.863Z,38.97
2019-03-29T17:37:01.070Z,40.59
2019-03-29T17:42:10.346Z,39.58
2019-03-29T17:47:20.578Z,41.77
2019-03-29T17:52:19.712Z,38.86
2019-03-29T17:57:27.570Z,40.97
2019-03-29T18:02:36.855Z,40.65
2019-03-29T18:07:45.977Z,41.17
2019-03-29T18:12:55.299Z,39.70
2019-03-29T18:18:04.619Z,40.07
2019-03-29T18:23:14.004Z,41.36
2019-03-29T18:28:23.150Z,36.81
2019-03-29T18:33:34.926Z,42.10
2019-03-29T18:38:34.124Z,37.31
2019-03-29T18:43:43.363Z,43.60
2019-03-29T18:48:52.506Z,41.50
2019-03-29T18:54:01.803Z,43.69
2019-03-29T18:59:11.696Z,42.54
2019-03-29T19:04:20.127Z,36.34
2019-03-29T19:09:31.638Z,44.10
2019-03-29T19:14:41.442Z,41.50
2019-03-29T19:19:46.892Z,42.54
2019-03-29T19:24:56.212Z,41.13
2019-03-29T19:30:05.418Z,42.21
2019-03-29T19:35:14.821Z,37.34
2019-03-29T19:40:24.487Z,43.90
2019-03-29T19:45:34.336Z,41.23
2019-03-29T19:50:41.486Z,41.89
2019-03-29T19:55:50.927Z,40.55
2019-03-29T20:01:00.143Z,39.90
2019-03-29T20:06:09.294Z,41.02
2019-03-29T20:11:19.761Z,41.42
2019-03-29T20:16:19.116Z,41.33
2019-03-29T20:21:28.261Z,39.40
2019-03-29T20:26:37.498Z,39.13
2019-03-29T20:31:45.170Z,39.52
2019-03-29T20:36:54.489Z,38.84
2019-03-29T20:42:03.752Z,43.09
2019-03-29T20:47:13.053Z,41.33
2019-03-29T20:52:22.212Z,41.77
2019-03-29T20:57:31.466Z,40.51
2019-03-29T21:02:40.607Z,42.32
2019-03-29T21:07:49.850Z,44.49
2019-03-29T21:12:59.029Z,44.70
2019-03-29T21:18:08.362Z,44.54
2019-03-29T21:23:17.522Z,45.16
2019-03-29T21:28:26.921Z,44.46
2019-03-29T21:33:40.708Z,37.64
2019-03-29T21:38:37.073Z,44.97
2019-03-29T21:43:46.178Z,45.05
2019-03-29T21:48:55.398Z,45.57
2019-03-29T21:54:04.517Z,42.69
2019-03-29T21:59:13.783Z,44.35
2019-03-29T22:04:22.881Z,44.36
2019-03-29T22:09:37.122Z,44.81
2019-03-29T22:14:40.748Z,45.13
2019-03-29T22:19:49.999Z,44.45
2019-03-29T22:24:59.215Z,38.17
2019-03-29T22:30:08.443Z,43.59
2019-03-29T22:35:17.572Z,44.89
2019-03-29T22:40:25.572Z,41.77
2019-03-29T22:45:34.711Z,45.16
2019-03-29T22:50:42.542Z,42.34
2019-03-29T22:55:51.689Z,44.27
2019-03-29T23:01:00.886Z,38.39
2019-03-29T23:06:10.536Z,44.12
2019-03-29T23:11:18.857Z,44.51
2019-03-29T23:16:30.397Z,40.77
2019-03-29T23:21:36.715Z,42.27
2019-03-29T23:26:45.911Z,39.10
2019-03-29T23:31:55.078Z,39.17
2019-03-29T23:37:04.201Z,43.23
2019-03-29T23:42:13.526Z,42.20
2019-03-29T23:47:22.658Z,38.85
2019-03-29T23:52:31.993Z,41.34
2019-03-29T23:57:41.165Z,38.93
